createdAt,value
2022-08-27T00:02:08.626Z,18.08
2022-08-27T00:04:37.444Z,17.92
2022-08-27T00:07:06.017Z,18.07
2022-08-27T00:09:34.509Z,18.01
2022-08-27T00:12:02.481Z,18.05
2022-08-27T00:14:31.023Z,17.87
2022-08-27T00:16:58.692Z,18.09
2022-08-27T00:19:27.318Z,17.86
2022-08-27T00:21:55.978Z,17.71
2022-08-27T00:24:25.264Z,18.07
2022-08-27T00:26:53.931Z,17.97
2022-08-27T00:29:22.655Z,17.99
2022-08-27T00:31:52.970Z,17.89
2022-08-27T00:34:23.279Z,17.66
2022-08-27T00:36:50.763Z,17.81
2022-08-27T00:39:19.471Z,17.67
2022-08-27T00:41:47.544Z,17.88
2022-08-27T00:44:17.128Z,17.69
2022-08-27T00:46:50.193Z,17.90
2022-08-27T00:49:26.551Z,17.91
2022-08-27T00:52:01.585Z,17.89
2022-08-27T00:54:30.532Z,17.72
2022-08-27T00:56:59.949Z,17.84
2022-08-27T00:59:32.992Z,17.64
2022-08-27T01:02:20.289Z,17.82
2022-08-27T01:05:13.881Z,17.91
2022-08-27T01:07:46.996Z,17.67
2022-08-27T01:10:19.576Z,17.53
2022-08-27T01:12:53.481Z,17.73
2022-08-27T01:15:25.317Z,17.35
2022-08-27T01:17:54.090Z,17.68
2022-08-27T01:20:46.307Z,17.32
2022-08-27T01:23:40.456Z,17.52
2022-08-27T01:26:14.180Z,17.56
2022-08-27T01:28:42.880Z,17.60
2022-08-27T01:31:12.685Z,17.60
2022-08-27T01:33:41.240Z,17.28
2022-08-27T01:36:08.833Z,17.16
2022-08-27T01:38:37.098Z,17.20
2022-08-27T01:41:04.918Z,17.36
2022-08-27T01:43:34.280Z,17.45
2022-08-27T01:46:01.577Z,17.39
2022-08-27T01:48:32.708Z,17.59
2022-08-27T01:51:00.406Z,17.47
2022-08-27T01:53:28.974Z,17.02
2022-08-27T01:55:57.464Z,17.09
2022-08-27T01:58:28.647Z,17.19
2022-08-27T02:01:03.895Z,17.16
2022-08-27T02:03:32.766Z,17.46
2022-08-27T02:06:06.727Z,17.29
2022-08-27T02:08:37.930Z,17.41
2022-08-27T02:11:08.571Z,17.20
2022-08-27T02:13:36.609Z,17.33
2022-08-27T02:16:04.875Z,17.04
2022-08-27T02:18:32.456Z,17.33
2022-08-27T02:20:59.883Z,17.32
2022-08-27T02:23:29.943Z,17.23
2022-08-27T02:25:57.565Z,17.11
2022-08-27T02:28:25.103Z,17.28
2022-08-27T02:30:52.524Z,17.13
2022-08-27T02:33:20.018Z,17.00
2022-08-27T02:35:48.913Z,17.09
2022-08-27T02:38:16.345Z,17.22
2022-08-27T02:40:45.202Z,16.93
2022-08-27T02:43:15.949Z,17.05
2022-08-27T02:45:53.744Z,17.08
2022-08-27T02:48:21.815Z,17.09
2022-08-27T02:50:50.134Z,17.14
2022-08-27T02:53:18.665Z,16.87
2022-08-27T02:55:46.763Z,17.08
2022-08-27T02:58:17.027Z,16.82
2022-08-27T03:00:48.795Z,16.79
2022-08-27T03:03:16.517Z,16.75
2022-08-27T03:05:44.022Z,17.03
2022-08-27T03:08:12.702Z,16.96
2022-08-27T03:10:40.474Z,16.73
2022-08-27T03:13:10.712Z,16.67
2022-08-27T03:15:38.246Z,16.88
2022-08-27T03:18:22.357Z,16.86
2022-08-27T03:20:56.111Z,16.69
2022-08-27T03:23:26.544Z,16.76
2022-08-27T03:25:59.227Z,16.97
2022-08-27T03:28:30.468Z,16.73
2022-08-27T03:31:01.426Z,16.82
2022-08-27T03:33:33.072Z,16.78
2022-08-27T03:36:00.759Z,16.76
2022-08-27T03:38:28.463Z,16.54
2022-08-27T03:40:56.402Z,16.91
2022-08-27T03:43:24.685Z,16.91
2022-08-27T03:46:01.863Z,16.59
2022-08-27T03:48:34.376Z,16.60
2022-08-27T03:51:16.470Z,16.65
2022-08-27T03:53:47.170Z,16.50
2022-08-27T03:56:14.913Z,16.86
2022-08-27T03:58:45.568Z,16.81
2022-08-27T04:01:14.236Z,16.63
2022-08-27T04:03:41.647Z,16.62
2022-08-27T04:06:10.411Z,16.88
2022-08-27T04:08:37.768Z,16.54
2022-08-27T04:11:07.816Z,16.78
2022-08-27T04:13:38.860Z,16.76
2022-08-27T04:22:29.467Z,17.16
2022-08-27T04:24:58.324Z,17.04
2022-08-27T04:27:28.387Z,16.83
2022-08-27T04:29:58.509Z,16.95
2022-08-27T04:32:27.809Z,16.93
2022-08-27T04:35:01.212Z,16.88
2022-08-27T04:37:33.373Z,16.65
2022-08-27T04:42:50.006Z,16.71
2022-08-27T04:45:17.463Z,16.59
2022-08-27T04:47:46.099Z,16.66
2022-08-27T04:50:13.517Z,16.62
2022-08-27T04:52:42.921Z,16.90
2022-08-27T04:55:10.627Z,16.90
2022-08-27T04:57:41.396Z,16.84
2022-08-27T05:00:09.819Z,16.91
2022-08-27T05:02:37.167Z,16.88
2022-08-27T05:05:05.083Z,17.01
2022-08-27T05:07:32.573Z,16.87
2022-08-27T05:10:01.193Z,16.95
2022-08-27T05:12:28.522Z,17.12
2022-08-27T05:14:57.722Z,17.03
2022-08-27T05:17:25.086Z,17.31
2022-08-27T05:19:53.915Z,17.36
2022-08-27T05:22:21.370Z,17.38
2022-08-27T05:24:51.290Z,17.10
2022-08-27T05:27:18.390Z,17.22
2022-08-27T05:29:46.781Z,17.33
2022-08-27T05:32:14.161Z,17.49
2022-08-27T05:34:42.585Z,17.58
2022-08-27T05:37:10.719Z,17.33
2022-08-27T05:39:39.073Z,17.45
2022-08-27T05:42:07.359Z,17.64
2022-08-27T05:44:42.973Z,17.67
2022-08-27T05:47:11.264Z,17.71
2022-08-27T05:49:39.234Z,17.69
2022-08-27T05:52:10.103Z,17.74
2022-08-27T05:54:40.191Z,17.83
2022-08-27T05:57:07.873Z,17.78
2022-08-27T05:59:55.237Z,17.90
2022-08-27T06:02:23.456Z,17.69
2022-08-27T06:04:51.181Z,17.86
2022-08-27T06:07:19.896Z,17.93
2022-08-27T06:12:46.840Z,17.64
2022-08-27T06:15:14.370Z,17.48
2022-08-27T06:17:42.446Z,17.91
2022-08-27T06:20:11.756Z,17.90
2022-08-27T06:22:39.167Z,17.86
2022-08-27T06:25:08.154Z,18.15
2022-08-27T06:27:35.662Z,17.52
2022-08-27T06:30:04.710Z,17.71
2022-08-27T06:32:32.091Z,18.22
2022-08-27T06:35:00.277Z,18.25
2022-08-27T06:37:27.948Z,18.08
2022-08-27T06:39:56.176Z,18.34
2022-08-27T06:42:24.010Z,18.28
2022-08-27T06:44:55.217Z,18.43
2022-08-27T06:47:23.008Z,18.42
2022-08-27T06:49:50.495Z,18.42
2022-08-27T06:52:18.217Z,18.26
2022-08-27T06:54:46.009Z,18.59
2022-08-27T06:57:14.734Z,18.44
2022-08-27T06:59:42.416Z,18.39
2022-08-27T07:02:13.811Z,18.67
2022-08-27T07:04:41.578Z,18.79
2022-08-27T07:07:14.241Z,18.59
2022-08-27T07:09:56.239Z,18.90
2022-08-27T07:12:24.692Z,18.90
2022-08-27T07:14:58.666Z,19.13
2022-08-27T07:17:27.974Z,19.16
2022-08-27T07:19:56.701Z,19.02
2022-08-27T07:22:24.723Z,18.90
2022-08-27T07:24:54.286Z,19.21
2022-08-27T07:27:21.990Z,18.82
2022-08-27T07:29:50.422Z,19.12
2022-08-27T07:32:18.400Z,19.21
2022-08-27T07:34:47.042Z,18.84
2022-08-27T07:37:15.191Z,19.33
2022-08-27T07:39:43.935Z,19.06
2022-08-27T07:42:29.898Z,19.32
2022-08-27T07:44:58.525Z,19.27
2022-08-27T07:47:25.981Z,19.04
2022-08-27T07:49:54.668Z,19.49
2022-08-27T07:52:26.314Z,19.57
2022-08-27T07:54:55.490Z,19.80
2022-08-27T07:57:22.952Z,19.87
2022-08-27T07:59:53.656Z,19.95
2022-08-27T08:02:21.336Z,19.82
2022-08-27T08:04:49.344Z,19.76
2022-08-27T08:07:17.204Z,20.13
2022-08-27T08:09:44.668Z,20.04
2022-08-27T08:12:14.433Z,20.19
2022-08-27T08:14:41.955Z,20.42
2022-08-27T08:17:10.802Z,20.26
2022-08-27T08:19:38.421Z,20.36
2022-08-27T08:22:06.964Z,20.57
2022-08-27T08:24:36.617Z,20.70
2022-08-27T08:27:08.139Z,20.51
2022-08-27T08:29:36.151Z,20.87
2022-08-27T08:32:09.768Z,21.13
2022-08-27T08:34:41.355Z,20.93
2022-08-27T08:37:14.915Z,21.39
2022-08-27T08:39:42.776Z,20.87
2022-08-27T08:42:51.842Z,21.73
2022-08-27T08:45:27.151Z,21.81
2022-08-27T08:48:20.332Z,21.88
2022-08-27T08:51:03.338Z,22.01
2022-08-27T08:53:51.536Z,22.11
2022-08-27T08:56:29.168Z,21.91
2022-08-27T08:59:11.695Z,22.39
2022-08-27T09:01:39.381Z,22.39
2022-08-27T09:04:11.171Z,22.64
2022-08-27T09:07:09.940Z,22.71
2022-08-27T09:10:02.258Z,22.76
2022-08-27T09:12:34.843Z,22.36
2022-08-27T09:15:12.475Z,22.79
2022-08-27T09:17:42.412Z,22.79
2022-08-27T09:20:14.018Z,22.96
2022-08-27T09:23:17.410Z,22.93
2022-08-27T09:25:45.072Z,22.63
2022-08-27T09:28:35.132Z,22.95
2022-08-27T09:31:08.794Z,22.76
2022-08-27T09:33:44.607Z,22.92
2022-08-27T09:36:24.333Z,22.82
2022-08-27T09:39:03.547Z,22.91
2022-08-27T09:41:43.465Z,22.75
2022-08-27T09:44:15.023Z,22.94
2022-08-27T09:46:53.259Z,22.80
2022-08-27T09:49:22.310Z,22.84
2022-08-27T09:51:49.610Z,22.84
2022-08-27T09:54:29.254Z,22.87
2022-08-27T09:56:58.869Z,22.99
2022-08-27T09:59:34.804Z,22.76
2022-08-27T10:02:15.329Z,23.02
2022-08-27T10:04:50.668Z,22.74
2022-08-27T10:07:23.006Z,23.05
2022-08-27T10:10:22.270Z,23.15
2022-08-27T10:13:01.404Z,23.12
2022-08-27T10:15:49.568Z,23.16
2022-08-27T10:18:17.787Z,23.31
2022-08-27T10:21:15.501Z,23.33
2022-08-27T10:23:48.450Z,23.09
2022-08-27T10:26:34.541Z,23.39
2022-08-27T10:29:08.270Z,23.58
2022-08-27T10:31:55.501Z,23.58
2022-08-27T10:34:43.301Z,23.60
2022-08-27T10:37:36.569Z,23.34
2022-08-27T10:40:10.447Z,23.72
2022-08-27T10:43:05.964Z,23.77
2022-08-27T10:45:48.310Z,23.86
2022-08-27T10:48:26.568Z,23.84
2022-08-27T10:51:06.936Z,23.90
2022-08-27T10:53:54.758Z,23.95
2022-08-27T10:57:14.495Z,23.86
2022-08-27T10:59:57.750Z,24.04
2022-08-27T11:02:32.082Z,24.25
2022-08-27T11:05:22.889Z,24.30
2022-08-27T11:08:00.186Z,24.39
2022-08-27T11:10:35.339Z,24.49
2022-08-27T11:13:40.066Z,24.54
2022-08-27T11:16:17.557Z,24.75
2022-08-27T11:18:58.853Z,24.98
2022-08-27T11:22:01.926Z,25.14
2022-08-27T11:24:36.636Z,25.21
2022-08-27T11:27:08.336Z,25.30
2022-08-27T11:30:17.431Z,25.33
2022-08-27T11:33:14.129Z,25.14
2022-08-27T11:36:00.084Z,25.32
2022-08-27T11:39:17.504Z,25.31
2022-08-27T11:42:09.433Z,25.20
2022-08-27T11:44:44.983Z,25.02
2022-08-27T11:47:21.988Z,24.81
2022-08-27T11:50:01.527Z,25.11
2022-08-27T11:52:39.898Z,25.06
2022-08-27T11:55:31.355Z,24.85
2022-08-27T11:58:18.099Z,24.74
2022-08-27T12:00:48.637Z,24.74
2022-08-27T12:03:22.067Z,24.96
2022-08-27T12:06:09.477Z,25.03
2022-08-27T12:08:39.102Z,24.80
2022-08-27T12:11:20.149Z,25.03
2022-08-27T12:13:55.339Z,25.12
2022-08-27T12:17:01.331Z,24.88
2022-08-27T12:19:29.238Z,25.04
2022-08-27T12:22:06.438Z,25.08
2022-08-27T12:24:49.363Z,25.15
2022-08-27T12:27:26.277Z,25.20
2022-08-27T12:30:19.834Z,25.19
2022-08-27T12:32:52.818Z,25.16
2022-08-27T12:35:41.526Z,25.12
2022-08-27T12:38:42.906Z,25.07
2022-08-27T12:41:29.050Z,24.87
2022-08-27T12:44:12.877Z,24.98
2022-08-27T12:46:59.794Z,25.05
2022-08-27T12:49:39.695Z,24.95
2022-08-27T12:52:36.513Z,24.86
2022-08-27T12:55:14.157Z,24.75
2022-08-27T12:58:23.679Z,24.99
2022-08-27T13:01:00.987Z,24.81
2022-08-27T13:03:39.018Z,24.67
2022-08-27T13:06:34.466Z,24.94
2022-08-27T13:09:06.680Z,25.01
2022-08-27T13:11:48.580Z,24.82
2022-08-27T13:14:22.437Z,25.10
2022-08-27T13:16:58.001Z,24.82
2022-08-27T13:19:37.424Z,24.83
2022-08-27T13:22:07.660Z,24.35
2022-08-27T13:24:44.739Z,25.33
2022-08-27T13:27:13.616Z,25.24
2022-08-27T13:29:44.978Z,25.38
2022-08-27T13:32:15.210Z,24.88
2022-08-27T13:34:42.737Z,25.30
2022-08-27T13:37:47.910Z,25.09
2022-08-27T13:40:31.125Z,24.95
2022-08-27T13:43:13.970Z,24.46
2022-08-27T13:45:44.614Z,24.30
2022-08-27T13:48:16.366Z,24.72
2022-08-27T13:50:52.835Z,24.74
2022-08-27T13:53:43.430Z,24.50
2022-08-27T13:56:11.673Z,24.78
2022-08-27T13:58:39.308Z,24.86
2022-08-27T14:01:16.766Z,24.74
2022-08-27T14:04:06.770Z,24.38
2022-08-27T14:06:43.351Z,23.38
2022-08-27T14:09:20.224Z,23.08
2022-08-27T14:11:49.356Z,22.70
2022-08-27T14:14:19.272Z,22.67
2022-08-27T14:16:58.338Z,22.67
2022-08-27T14:19:25.998Z,22.48
2022-08-27T14:21:54.860Z,22.18
2022-08-27T14:24:22.627Z,22.03
2022-08-27T14:26:55.755Z,21.42
2022-08-27T14:29:23.484Z,21.61
2022-08-27T14:31:50.927Z,21.47
2022-08-27T14:34:19.499Z,21.21
2022-08-27T14:36:47.886Z,21.27
2022-08-27T14:39:18.517Z,21.14
2022-08-27T14:41:49.699Z,21.01
2022-08-27T14:44:19.047Z,21.13
2022-08-27T14:46:47.630Z,21.10
2022-08-27T14:49:26.227Z,21.02
2022-08-27T14:51:54.457Z,20.88
2022-08-27T14:54:28.913Z,20.95
2022-08-27T14:57:03.140Z,20.71
2022-08-27T14:59:31.084Z,20.83
2022-08-27T15:02:00.389Z,20.59
2022-08-27T15:04:28.798Z,20.85
2022-08-27T15:06:56.627Z,20.86
2022-08-27T15:09:25.001Z,20.70
2022-08-27T15:11:53.337Z,20.78
2022-08-27T15:14:23.793Z,20.72
2022-08-27T15:16:52.972Z,20.52
2022-08-27T15:19:22.573Z,20.83
2022-08-27T15:21:52.148Z,20.75
2022-08-27T15:24:26.385Z,20.75
2022-08-27T15:26:58.582Z,20.75
2022-08-27T15:29:27.262Z,20.47
2022-08-27T15:31:55.237Z,20.71
2022-08-27T15:34:23.728Z,20.59
2022-08-27T15:36:53.768Z,20.56
2022-08-27T15:39:22.188Z,20.29
2022-08-27T15:42:05.858Z,20.52
2022-08-27T15:44:39.094Z,20.75
2022-08-27T15:47:07.303Z,20.49
2022-08-27T15:49:35.410Z,20.55
2022-08-27T15:52:04.272Z,20.82
2022-08-27T15:54:31.990Z,20.49
2022-08-27T15:57:03.640Z,20.79
2022-08-27T16:02:19.150Z,20.35
2022-08-27T16:04:49.307Z,20.76
2022-08-27T16:07:21.096Z,20.69
2022-08-27T16:09:49.339Z,20.38
2022-08-27T16:12:27.508Z,20.59
2022-08-27T16:14:56.460Z,20.65
2022-08-27T16:17:26.696Z,20.50
2022-08-27T16:19:55.634Z,20.52
2022-08-27T16:22:23.305Z,20.37
2022-08-27T16:24:52.223Z,20.67
2022-08-27T16:27:19.686Z,20.24
2022-08-27T16:29:48.300Z,20.35
2022-08-27T16:32:18.957Z,20.65
2022-08-27T16:34:55.499Z,20.10
2022-08-27T16:37:25.268Z,20.26
2022-08-27T16:39:54.168Z,20.60
2022-08-27T16:42:22.482Z,20.54
2022-08-27T16:44:50.013Z,20.44
2022-08-27T16:47:18.193Z,20.57
2022-08-27T16:50:04.125Z,20.35
2022-08-27T16:52:32.556Z,20.55
2022-08-27T16:55:00.632Z,20.26
2022-08-27T16:57:29.781Z,20.14
2022-08-27T16:59:57.342Z,20.20
2022-08-27T17:02:31.102Z,20.33
2022-08-27T17:05:17.326Z,20.16
2022-08-27T17:07:50.463Z,20.27
2022-08-27T17:10:21.167Z,20.28
2022-08-27T17:12:52.172Z,20.16
2022-08-27T17:15:20.385Z,20.28
2022-08-27T17:17:48.100Z,20.29
2022-08-27T17:20:16.693Z,20.30
2022-08-27T17:22:44.329Z,19.56
2022-08-27T17:25:12.169Z,20.15
2022-08-27T17:27:39.547Z,19.58
2022-08-27T17:30:09.356Z,20.18
2022-08-27T17:32:40.004Z,19.87
2022-08-27T17:35:10.313Z,19.98
2022-08-27T17:37:38.598Z,19.77
2022-08-27T17:40:07.661Z,19.89
2022-08-27T17:42:35.682Z,20.20
2022-08-27T17:45:09.492Z,20.11
2022-08-27T17:47:41.654Z,20.18
2022-08-27T17:50:09.626Z,20.15
2022-08-27T17:52:40.264Z,19.98
2022-08-27T17:55:09.066Z,20.17
2022-08-27T17:57:40.867Z,19.90
2022-08-27T18:00:14.618Z,19.98
2022-08-27T18:02:48.981Z,19.86
2022-08-27T18:05:22.673Z,20.09
2022-08-27T18:07:51.135Z,19.73
2022-08-27T18:10:24.570Z,19.50
2022-08-27T18:12:55.376Z,19.47
2022-08-27T18:15:27.486Z,19.78
2022-08-27T18:17:56.515Z,19.93
2022-08-27T18:20:27.263Z,19.90
2022-08-27T18:22:55.553Z,19.84
2022-08-27T18:25:25.619Z,19.90
2022-08-27T18:27:57.283Z,19.62
2022-08-27T18:30:25.746Z,19.81
2022-08-27T18:32:53.683Z,19.55
2022-08-27T18:35:31.242Z,19.76
2022-08-27T18:38:01.724Z,19.56
2022-08-27T18:40:36.068Z,19.37
2022-08-27T18:43:05.283Z,19.57
2022-08-27T18:45:36.187Z,19.53
2022-08-27T18:48:17.386Z,19.35
2022-08-27T18:50:51.991Z,19.45
2022-08-27T18:53:21.427Z,19.61
2022-08-27T18:56:00.759Z,19.63
2022-08-27T18:58:29.564Z,19.51
2022-08-27T19:01:01.397Z,19.45
2022-08-27T19:03:36.951Z,19.17
2022-08-27T19:06:08.877Z,19.17
2022-08-27T19:08:39.970Z,19.42
2022-08-27T19:11:08.930Z,19.30
2022-08-27T19:13:36.917Z,18.93
2022-08-27T19:16:22.577Z,19.02
2022-08-27T19:18:50.589Z,19.10
2022-08-27T19:21:18.357Z,19.17
2022-08-27T19:23:49.471Z,18.74
2022-08-27T19:26:20.130Z,19.22
2022-08-27T19:28:48.651Z,18.93
2022-08-27T19:31:16.574Z,18.78
2022-08-27T19:33:45.861Z,19.15
2022-08-27T19:36:16.034Z,19.11
2022-08-27T19:38:46.667Z,18.71
2022-08-27T19:41:14.183Z,18.73
2022-08-27T19:43:44.721Z,19.11
2022-08-27T19:46:17.361Z,18.93
2022-08-27T19:48:45.199Z,18.77
2022-08-27T19:51:14.691Z,18.95
2022-08-27T19:53:43.574Z,18.53
2022-08-27T19:56:13.877Z,18.77
2022-08-27T19:58:43.590Z,18.99
2022-08-27T20:01:12.489Z,19.06
2022-08-27T20:03:41.208Z,18.86
2022-08-27T20:06:11.559Z,18.72
2022-08-27T20:08:39.163Z,19.05
2022-08-27T20:11:06.886Z,19.04
2022-08-27T20:13:34.769Z,18.77
2022-08-27T20:16:05.400Z,18.95
2022-08-27T20:18:35.881Z,18.97
2022-08-27T20:21:05.959Z,18.92
2022-08-27T20:23:34.681Z,18.79
2022-08-27T20:26:02.666Z,18.89
2022-08-27T20:28:39.726Z,18.89
2022-08-27T20:31:08.637Z,18.88
2022-08-27T20:33:36.664Z,18.81
2022-08-27T20:36:06.583Z,18.64
2022-08-27T20:38:35.318Z,18.80
2022-08-27T20:41:03.034Z,18.80
2022-08-27T20:43:31.026Z,18.58
2022-08-27T20:45:58.835Z,18.57
2022-08-27T20:48:26.926Z,18.13
2022-08-27T20:50:57.484Z,18.39
2022-08-27T20:53:26.341Z,18.51
2022-08-27T20:55:56.814Z,18.67
2022-08-27T20:58:44.389Z,18.62
2022-08-27T21:01:12.389Z,18.16
2022-08-27T21:03:40.333Z,18.47
2022-08-27T21:06:08.224Z,18.33
2022-08-27T21:08:41.208Z,18.13
2022-08-27T21:11:14.485Z,18.46
2022-08-27T21:13:55.659Z,18.43
2022-08-27T21:16:26.174Z,18.31
2022-08-27T21:18:54.017Z,18.32
2022-08-27T21:21:23.520Z,18.17
2022-08-27T21:23:51.242Z,18.34
2022-08-27T21:26:23.986Z,18.04
2022-08-27T21:28:55.763Z,17.99
2022-08-27T21:31:25.501Z,18.31
2022-08-27T21:33:53.222Z,18.26
2022-08-27T21:36:21.945Z,18.10
2022-08-27T21:38:50.257Z,17.97
2022-08-27T21:41:17.647Z,18.12
2022-08-27T21:43:46.857Z,18.18
2022-08-27T21:46:14.446Z,17.85
2022-08-27T21:48:43.763Z,18.31
2022-08-27T21:51:14.658Z,18.05
2022-08-27T21:53:52.710Z,18.27
2022-08-27T21:56:20.165Z,18.26
2022-08-27T21:58:48.423Z,18.21
2022-08-27T22:01:16.302Z,17.91
2022-08-27T22:03:47.097Z,18.00
2022-08-27T22:06:15.135Z,18.04
2022-08-27T22:08:43.823Z,18.20
2022-08-27T22:11:12.941Z,18.19
2022-08-27T22:13:41.684Z,18.20
2022-08-27T22:16:10.435Z,18.17
2022-08-27T22:18:38.041Z,18.17
2022-08-27T22:21:07.714Z,17.97
2022-08-27T22:23:35.241Z,17.72
2022-08-27T22:26:04.955Z,17.47
2022-08-27T22:28:32.669Z,17.93
2022-08-27T22:31:01.063Z,18.09
2022-08-27T22:33:29.039Z,17.91
2022-08-27T22:35:57.427Z,17.80
2022-08-27T22:38:24.532Z,16.47
2022-08-27T22:40:54.810Z,18.00
2022-08-27T22:43:22.283Z,17.88
2022-08-27T22:45:50.755Z,17.69
2022-08-27T22:48:18.573Z,17.82
2022-08-27T22:50:47.009Z,17.76
2022-08-27T22:53:15.337Z,17.59
2022-08-27T22:55:49.426Z,17.88
2022-08-27T22:58:18.443Z,17.88
2022-08-27T23:00:55.217Z,17.87
2022-08-27T23:03:23.088Z,17.81
2022-08-27T23:05:51.161Z,17.46
2022-08-27T23:08:19.141Z,17.66
2022-08-27T23:10:46.714Z,17.74
2022-08-27T23:13:14.946Z,17.77
2022-08-27T23:15:42.634Z,17.68
2022-08-27T23:18:10.685Z,17.66
2022-08-27T23:20:38.298Z,17.55
2022-08-27T23:23:08.170Z,17.63
2022-08-27T23:25:54.051Z,17.62
2022-08-27T23:28:23.547Z,17.25
2022-08-27T23:30:51.109Z,17.54
2022-08-27T23:33:19.262Z,17.00
2022-08-27T23:35:48.403Z,17.27
2022-08-27T23:38:18.425Z,17.30
2022-08-27T23:40:47.120Z,17.45
2022-08-27T23:43:16.051Z,17.47
2022-08-27T23:45:43.732Z,17.27
2022-08-27T23:48:12.356Z,17.37
2022-08-27T23:50:40.941Z,17.49
2022-08-27T23:53:09.375Z,17.44
2022-08-27T23:55:40.291Z,17.10
2022-08-27T23:58:10.037Z,17.09
